1896 Severe Cyclonic Storm NOT_NAMED (1896319N06079)


IBTrACS version v04r00. Visit IBTrACS website for data access.
Please direct all questions to the IBTrACS Q and A forum

Storm track - Intensity - Wind Radii - Intensity Data - Source Data - All data

Summary Information

Storm ID 1896319N06079
Start Nov 14 00Z
Max Intensity 64 kt (Nov 18 12Z)
End Nov 21 03Z
ATCF IDs
Track status Best track data.

Storm track plot

Map of storm track

Intensity plots

Map of storm track

Radial wind information

No radial wind information for this storm


Position and Intensity Table

BASIN ISO_TIME_________ NATURE LAT LON DS824 WIND
degrees north degrees east kts
NI 1896-11-14 00:00:00 TS 6.10 79.20 30
NI 03:00:00 TS 6.20 78.93 30
NI 06:00:00 TS 6.34 78.57 30
NI 09:00:00 TS 6.48 78.22 30
NI 12:00:00 TS 6.62 77.89 30
NI 15:00:00 TS 6.77 77.52 30
NI 18:00:00 TS 6.93 77.17 30
NI 21:00:00 TS 7.08 76.81 30
NI 1896-11-15 00:00:00 TS 7.23 76.46 30
NI 03:00:00 TS 7.35 76.14 30
NI 06:00:00 TS 7.46 75.86 30
NI 09:00:00 TS 7.58 75.60 30
NI 12:00:00 TS 7.73 75.34 30
NI 15:00:00 TS 7.90 75.03 30
NI 18:00:00 TS 8.10 74.68 30
NI 21:00:00 TS 8.31 74.35 30
NI 1896-11-16 00:00:00 TS 8.51 74.05 30
NI 03:00:00 TS 8.66 73.79 30
NI 06:00:00 TS 8.76 73.59 30
NI 09:00:00 TS 8.85 73.44 30
NI 12:00:00 TS 8.95 73.28 30
NI 15:00:00 TS 9.07 73.08 30
NI 18:00:00 TS 9.22 72.85 30
NI 21:00:00 TS 9.36 72.64 30
NI 1896-11-17 00:00:00 TS 9.52 72.42 30
NI 03:00:00 TS 9.67 72.18 30
NI 06:00:00 TS 9.83 71.93 30
NI 09:00:00 TS 10.02 71.68 30
NI 12:00:00 TS 10.21 71.43 30
NI 15:00:00 TS 10.40 71.18 31
NI 18:00:00 TS 10.57 70.92 32
NI 21:00:00 TS 10.71 70.64 33
NI 1896-11-18 00:00:00 TS 10.88 70.35 34
NI 03:00:00 TS 11.16 70.03 41
NI 06:00:00 TS 11.50 69.69 49
NI 09:00:00 TS 11.88 69.36 56
NI 12:00:00 TS 12.29 69.05 64
NI 15:00:00 TS 12.72 68.77 64
NI 18:00:00 TS 13.16 68.51 64
NI 21:00:00 TS 13.60 68.28 64
NI 1896-11-19 00:00:00 TS 14.06 68.08 64
NI 03:00:00 TS 14.54 67.91 64
NI 06:00:00 TS 15.07 67.77 64
NI 09:00:00 TS 15.63 67.70 64
NI 12:00:00 TS 16.16 67.70 64
NI 15:00:00 TS 16.59 67.74 64
NI 18:00:00 TS 16.94 67.81 64
NI 21:00:00 TS 17.27 67.91 64
NI 1896-11-20 00:00:00 TS 17.62 68.09 64
NI 03:00:00 TS 18.04 68.36 64
NI 06:00:00 TS 18.54 68.70 64
NI 09:00:00 TS 19.03 69.08 64
NI 12:00:00 TS 19.48 69.48 64
NI 15:00:00 TS 19.86 69.90 56
NI 18:00:00 TS 20.16 70.29 49
NI 21:00:00 TS 20.43 70.71 41
NI 1896-11-21 00:00:00 TS 20.66 71.12 34
NI 03:00:00 NR 20.80 71.40

Source Information

Agency Information
USA
TOKYO
CMA
HKO
NEWDELHI
REUNION
BOM
NADI
WELLINGTON
DS824 n_ind.dat:225:NOT NAMED
TD9636 cons_worldwide_trop_cyclone_18710101-19891231-004:Line=2260
TD9635
NEUMANN
MLC

All available IBTrACS Data

SEASON BASIN SUBBASIN ISO_TIME_________ NATURE LAT LON DIST2LAND LANDFALL IFLAG USA SSHS DS824 LAT DS824 LON DS824 STAGE DS824 WIND TD9636 LAT TD9636 LON TD9636 STAGE STORM SPEED STORM DIR
Year degrees north degrees east km km 1 degrees north degrees east kts degrees north degrees east kts degrees
1896 NI BB 1896-11-14 00:00:00 TS 6.10 79.20 100 100 _________O____ -1 6.10 79.20 TC 30 6 290
1896 NI BB 03:00:00 TS 6.20 78.93 129 129 _________PO___ -1 6.25 78.79 TC 30 6.10 79.20 1 7 291
1896 NI BB 06:00:00 TS 6.34 78.57 154 154 _________OP___ -1 6.40 78.40 TC 30 6.25 78.82 1 8 292
1896 NI BB 09:00:00 TS 6.48 78.22 190 173 _________PP___ -1 6.55 78.04 TC 30 6.40 78.45 1 7 293
1896 NI AS 12:00:00 TS 6.62 77.89 173 145 _________OP___ -1 6.70 77.70 TC 30 6.55 78.07 1 7 293
1896 NI AS 15:00:00 TS 6.77 77.52 145 134 _________PO___ -1 6.85 77.35 TC 30 6.70 77.70 1 8 293
1896 NI AS 18:00:00 TS 6.93 77.17 134 120 _________OP___ -1 7.00 77.00 TC 30 6.85 77.33 1 8 293
1896 NI AS 21:00:00 TS 7.08 76.81 124 124 _________PP___ -1 7.16 76.64 TC 30 7.01 76.97 1 8 293
1896 NI AS 1896-11-15 00:00:00 TS 7.23 76.46 133 133 _________OP___ -1 7.30 76.30 TC 30 7.16 76.62 1 7 292
1896 NI AS 03:00:00 TS 7.35 76.14 157 149 _________PO___ -1 7.40 75.98 TC 30 7.30 76.30 1 6 291
1896 NI AS 06:00:00 TS 7.46 75.86 157 157 _________OP___ -1 7.50 75.70 TC 30 7.42 76.01 1 6 294
1896 NI AS 09:00:00 TS 7.58 75.60 172 172 _________PP___ -1 7.63 75.46 TC 30 7.53 75.74 1 6 298
1896 NI AS 12:00:00 TS 7.73 75.34 188 180 _________OP___ -1 7.80 75.20 TC 30 7.66 75.48 1 6 299
1896 NI AS 15:00:00 TS 7.90 75.03 199 199 _________PO___ -1 7.99 74.86 TC 30 7.80 75.20 1 7 300
1896 NI AS 18:00:00 TS 8.10 74.68 217 217 _________OP___ -1 8.20 74.50 TC 30 7.99 74.87 1 8 302
1896 NI AS 21:00:00 TS 8.31 74.35 251 246 _________PP___ -1 8.41 74.18 TC 30 8.21 74.52 1 8 303
1896 NI AS 1896-11-16 00:00:00 TS 8.51 74.05 272 268 _________OP___ -1 8.60 73.90 TC 30 8.42 74.19 1 7 302
1896 NI AS 03:00:00 TS 8.66 73.79 285 285 _________PO___ -1 8.71 73.68 TC 30 8.60 73.90 1 5 299
1896 NI AS 06:00:00 TS 8.76 73.59 304 304 _________OP___ -1 8.80 73.50 TC 30 8.72 73.69 1 4 299
1896 NI AS 09:00:00 TS 8.85 73.44 323 323 _________PP___ -1 8.89 73.36 TC 30 8.81 73.52 1 4 302
1896 NI AS 12:00:00 TS 8.95 73.28 332 332 _________OP___ -1 9.00 73.20 TC 30 8.90 73.36 1 4 301
1896 NI AS 15:00:00 TS 9.07 73.08 353 353 _________PO___ -1 9.14 72.96 TC 30 9.00 73.20 1 5 302
1896 NI AS 18:00:00 TS 9.22 72.85 383 378 _________OP___ -1 9.30 72.70 TC 30 9.13 72.99 1 5 304
1896 NI AS 21:00:00 TS 9.36 72.64 394 394 _________PP___ -1 9.45 72.50 TC 30 9.28 72.77 1 5 306
1896 NI AS 1896-11-17 00:00:00 TS 9.52 72.42 410 406 _________OP___ -1 9.60 72.30 TC 30 9.43 72.54 1 5 304
1896 NI AS 03:00:00 TS 9.67 72.18 416 416 _________PO___ -1 9.74 72.06 TC 30 9.60 72.30 1 6 303
1896 NI AS 06:00:00 TS 9.83 71.93 436 430 _________OP___ -1 9.90 71.80 TC 30 9.77 72.06 1 6 305
1896 NI AS 09:00:00 TS 10.02 71.68 443 443 _________PP___ -1 10.09 71.55 TC 30 9.94 71.81 1 6 307
1896 NI AS 12:00:00 TS 10.21 71.43 461 456 _________OP___ -1 10.30 71.30 TC 30 10.12 71.56 1 6 308
1896 NI AS 15:00:00 TS 10.40 71.18 470 470 _________PO___ -1 10.51 71.06 TC 31 10.30 71.30 1 6 306
1896 NI AS 18:00:00 TS 10.57 70.92 490 490 _________OP___ -1 10.70 70.80 TC 32 10.44 71.04 1 6 300
1896 NI AS 21:00:00 TS 10.71 70.64 514 509 _________PP___ -1 10.83 70.51 TC 33 10.59 70.77 1 6 299
1896 NI AS 1896-11-18 00:00:00 TS 10.88 70.35 534 534 _________OP___ -1 11.00 70.20 TC 34 10.77 70.49 1 8 306
1896 NI AS 03:00:00 TS 11.16 70.03 552 552 _________PO___ -1 11.31 69.85 TC 41 11.00 70.20 2 9 314
1896 NI AS 06:00:00 TS 11.50 69.69 573 573 _________OP___ -1 11.70 69.50 TC 49 11.31 69.87 2 10 318
1896 NI AS 09:00:00 TS 11.88 69.36 595 595 _________PP___ -1 12.08 69.18 TC 56 11.67 69.54 2 10 322
1896 NI AS 12:00:00 TS 12.29 69.05 606 606 _________OP___ -1 12.50 68.90 TC 64 12.07 69.20 2 10 326
1896 NI AS 15:00:00 TS 12.72 68.77 612 612 _________PO___ -1 12.94 68.63 TC 64 12.50 68.90 4 10 329
1896 NI AS 18:00:00 TS 13.16 68.51 620 616 _________OP___ -1 13.40 68.40 TC 64 12.92 68.62 4 10 332
1896 NI AS 21:00:00 TS 13.60 68.28 622 619 _________PP___ -1 13.84 68.18 TC 64 13.35 68.38 4 10 335
1896 NI AS 1896-11-19 00:00:00 TS 14.06 68.08 619 614 _________OP___ -1 14.30 68.00 TC 64 13.82 68.17 4 10 339
1896 NI AS 03:00:00 TS 14.54 67.91 620 612 _________PO___ -1 14.79 67.82 TC 64 14.30 68.00 4 11 343
1896 NI AS 06:00:00 TS 15.07 67.77 609 606 _________OP___ -1 15.30 67.70 TC 64 14.83 67.85 4 11 350
1896 NI AS 09:00:00 TS 15.63 67.70 607 598 _________PP___ -1 15.87 67.66 TC 64 15.38 67.75 4 11 356
1896 NI AS 12:00:00 TS 16.16 67.70 595 563 _________OP___ -1 16.40 67.70 TC 64 15.91 67.69 4 10 2
1896 NI AS 15:00:00 TS 16.59 67.74 563 529 _________PO___ -1 16.78 67.78 TC 64 16.40 67.70 4 8 8
1896 NI AS 18:00:00 TS 16.94 67.81 529 486 _________OP___ -1 17.10 67.90 TC 64 16.78 67.73 4 7 14
1896 NI AS 21:00:00 TS 17.27 67.91 486 446 _________PP___ -1 17.43 68.01 TC 64 17.11 67.82 4 7 21
1896 NI AS 1896-11-20 00:00:00 TS 17.62 68.09 446 398 _________OP___ -1 17.80 68.20 TC 64 17.44 67.97 4 9 29
1896 NI AS 03:00:00 TS 18.04 68.36 392 327 _________PO___ -1 18.29 68.51 TC 64 17.80 68.20 4 11 32
1896 NI AS 06:00:00 TS 18.54 68.70 327 258 _________OP___ -1 18.80 68.90 TC 64 18.27 68.49 4 12 35
1896 NI AS 09:00:00 TS 19.03 69.08 258 188 _________PP___ -1 19.28 69.29 TC 64 18.77 68.86 4 12 38
1896 NI AS 12:00:00 TS 19.48 69.48 188 137 _________OP___ -1 19.70 69.70 TC 64 19.26 69.27 4 11 43
1896 NI AS 15:00:00 TS 19.86 69.90 128 84 _________PO___ -1 20.03 70.09 TC 56 19.70 69.70 4 10 48
1896 NI AS 18:00:00 TS 20.16 70.29 76 35 _________OP___ -1 20.30 70.50 TC 49 20.06 70.13 4 10 54
1896 NI AS 21:00:00 TS 20.43 70.71 35 15 _________PP___ -1 20.55 70.94 TC 41 20.34 70.56 4 9 58
1896 NI AS 1896-11-21 00:00:00 TS 20.66 71.12 11 11 _________OP___ -1 20.80 71.40 TC 34 20.58 70.98 4 7 60
1896 NI AS 03:00:00 NR 20.80 71.40 11 __________O___ -1 TC 20.80 71.40 2 6 61